Time;durP1;ratioP1;P1;durP2;ratioP2;P2;SDS_P1;SDS_P2;PMS_P1;PMS_P2;Temp;Humidity;BMP_temperature;BMP_pressure;BME280_temperature;BME280_humidity;BME280_pressure;Samples;Min_cycle;Max_cycle;Signal;HPM_P1;HPM_P2
2023/01/08 00:01:26;;;;;;;;;;;;;;;17.98;67.67;101572.94;7399687;19;2294;-43
2023/01/08 00:03:54;;;;;;;;;;;;;;;17.94;67.72;101566.09;7398548;19;2146;-43
2023/01/08 00:06:24;;;;;;;;;;;;;;;17.97;67.85;101569.44;7399671;19;1981;-43
2023/01/08 00:08:55;;;;;;;;;;;;;;;18.00;67.74;101566.53;7399168;19;1691;-43
2023/01/08 00:11:24;;;;;;;;;;;;;;;17.92;67.74;101582.28;7398990;19;1708;-43
2023/01/08 00:13:52;;;;;;;;;;;;;;;17.80;68.40;101583.09;7403510;19;1918;-43
2023/01/08 00:16:21;;;;;;;;;;;;;;;18.07;67.46;101575.00;7406721;19;1756;-43
2023/01/08 00:18:49;;;;;;;;;;;;;;;18.39;66.24;101569.97;7407379;19;1604;-43
2023/01/08 00:21:17;;;;;;;;;;;;;;;19.00;65.32;101569.97;7406456;19;1804;-43
2023/01/08 00:23:52;;;;;;;;;;;;;;;19.46;65.19;101571.81;7405052;19;1852;-43
2023/01/08 00:26:25;;;;;;;;;;;;;;;19.68;65.91;101578.19;7406675;19;1454;-43
2023/01/08 00:28:54;;;;;;;;;;;;;;;19.72;66.03;101557.38;7405838;19;1793;-43
2023/01/08 00:31:23;;;;;;;;;;;;;;;19.61;66.30;101571.56;7406025;19;1670;-43
2023/01/08 00:33:52;;;;;;;;;;;;;;;19.60;67.11;101580.63;7404430;19;1421;-43
2023/01/08 00:36:21;;;;;;;;;;;;;;;19.50;67.19;101560.81;7406226;19;1810;-43
2023/01/08 00:38:49;;;;;;;;;;;;;;;19.30;67.75;101568.59;7406184;19;1603;-43
2023/01/08 00:41:18;;;;;;;;;;;;;;;19.15;68.13;101559.03;7406136;19;1646;-43
2023/01/08 00:43:49;;;;;;;;;;;;;;;19.16;67.98;101582.19;7405585;19;1866;-43
2023/01/08 00:46:18;;;;;;;;;;;;;;;19.07;67.71;101568.50;7405620;19;1596;-43
2023/01/08 00:48:47;;;;;;;;;;;;;;;19.10;68.07;101571.94;7406412;19;1785;-43
2023/01/08 00:51:15;;;;;;;;;;;;;;;19.08;67.70;101572.06;7405238;19;1645;-43
2023/01/08 00:53:43;;;;;;;;;;;;;;;19.06;67.71;101560.63;7405635;19;1605;-43
2023/01/08 00:56:12;;;;;;;;;;;;;;;19.17;67.48;101578.53;7405406;19;1643;-43
2023/01/08 00:58:40;;;;;;;;;;;;;;;19.07;67.48;101568.50;7406182;19;1603;-43
2023/01/08 01:01:15;;;;;;;;;;;;;;;19.16;67.25;101571.47;7405243;19;1656;-43
2023/01/08 01:03:44;;;;;;;;;;;;;;;19.11;67.28;101576.34;7403264;19;1855;-43
2023/01/08 01:06:13;;;;;;;;;;;;;;;19.13;67.50;101555.63;7403684;19;1953;-43
2023/01/08 01:08:43;;;;;;;;;;;;;;;19.10;67.02;101566.56;7402387;19;1910;-43
2023/01/08 01:11:11;;;;;;;;;;;;;;;19.12;66.74;101562.81;7404737;19;1609;-43
2023/01/08 01:13:40;;;;;;;;;;;;;;;19.17;66.31;101562.47;7404073;19;1554;-44
2023/01/08 01:16:10;;;;;;;;;;;;;;;19.08;65.95;101566.72;7404100;19;2241;-43
2023/01/08 01:18:43;;;;;;;;;;;;;;;19.06;65.78;101547.22;7404210;19;1408;-43
2023/01/08 01:21:11;;;;;;;;;;;;;;;19.07;65.71;101555.09;7403700;19;1624;-43
2023/01/08 01:23:40;;;;;;;;;;;;;;;19.02;65.31;101562.66;7403335;19;1463;-43
2023/01/08 01:26:15;;;;;;;;;;;;;;;19.11;65.10;101552.22;7399113;19;1850;-43
2023/01/08 01:28:43;;;;;;;;;;;;;;;19.11;64.64;101557.56;7403234;19;1816;-43
2023/01/08 01:31:14;;;;;;;;;;;;;;;19.09;64.47;101549.63;7403270;19;1687;-43
2023/01/08 01:33:45;;;;;;;;;;;;;;;19.05;64.45;101546.31;7403064;19;1857;-43
2023/01/08 01:36:14;;;;;;;;;;;;;;;19.05;64.58;101543.66;7403605;19;1982;-43
2023/01/08 01:38:44;;;;;;;;;;;;;;;19.03;64.57;101540.22;7402934;19;1685;-43
2023/01/08 01:41:19;;;;;;;;;;;;;;;19.01;64.45;101527.94;7403074;19;1759;-43
2023/01/08 01:43:50;;;;;;;;;;;;;;;19.09;64.08;101544.28;7402589;19;1896;-43
2023/01/08 01:46:22;;;;;;;;;;;;;;;19.10;64.15;101521.00;7403041;19;1720;-43
2023/01/08 01:48:57;;;;;;;;;;;;;;;19.08;63.86;101540.75;7402563;19;1676;-43
2023/01/08 01:51:29;;;;;;;;;;;;;;;19.15;63.55;101526.88;7401219;19;1591;-43
2023/01/08 01:53:58;;;;;;;;;;;;;;;19.10;63.57;101539.75;7402141;19;1479;-44
2023/01/08 01:56:27;;;;;;;;;;;;;;;19.15;63.39;101532.22;7402522;19;1761;-43
2023/01/08 01:58:56;;;;;;;;;;;;;;;19.18;63.26;101529.28;7402414;19;1400;-43
2023/01/08 02:01:25;;;;;;;;;;;;;;;19.15;63.44;101537.59;7402233;19;1600;-43
2023/01/08 02:03:55;;;;;;;;;;;;;;;19.12;63.08;101519.03;7401844;19;1699;-43
2023/01/08 02:06:35;;;;;;;;;;;;;;;19.15;63.12;101517.00;7402057;19;1899;-43
2023/01/08 02:09:04;;;;;;;;;;;;;;;19.21;62.90;101545.16;7401521;19;1609;-43
2023/01/08 02:11:39;;;;;;;;;;;;;;;19.14;62.73;101531.38;7402712;19;1321;-44
2023/01/08 02:14:10;;;;;;;;;;;;;;;19.16;62.51;101518.72;7402181;19;1597;-43
2023/01/08 02:16:41;;;;;;;;;;;;;;;19.23;62.42;101522.59;7401231;19;1720;-44
2023/01/08 02:19:21;;;;;;;;;;;;;;;18.96;63.25;101530.09;7401031;19;1901;-43
2023/01/08 02:21:55;;;;;;;;;;;;;;;18.52;64.73;101536.94;7401242;19;1648;-44
2023/01/08 02:24:29;;;;;;;;;;;;;;;18.20;65.36;101522.25;7400950;19;1867;-43
2023/01/08 02:27:01;;;;;;;;;;;;;;;17.88;64.60;101530.78;7401633;19;1553;-43
2023/01/08 02:29:30;;;;;;;;;;;;;;;17.68;65.90;101534.00;7399467;19;1690;-43
2023/01/08 02:31:59;;;;;;;;;;;;;;;17.54;66.05;101521.59;7400632;19;1641;-43
2023/01/08 02:34:27;;;;;;;;;;;;;;;17.54;67.31;101526.94;7401837;19;1614;-43
2023/01/08 02:36:58;;;;;;;;;;;;;;;17.55;67.12;101535.81;7400860;19;1681;-43
2023/01/08 02:39:43;;;;;;;;;;;;;;;17.51;66.73;101521.81;7400147;19;1578;-43
2023/01/08 02:42:16;;;;;;;;;;;;;;;17.53;66.63;101529.72;7400895;19;1918;-43
2023/01/08 02:44:52;;;;;;;;;;;;;;;17.59;66.82;101534.66;7401119;19;1865;-43
2023/01/08 02:47:32;;;;;;;;;;;;;;;18.19;64.66;101515.22;7400800;19;1882;-43
2023/01/08 02:50:15;;;;;;;;;;;;;;;18.61;63.56;101515.69;7400111;19;2384;-43
2023/01/08 02:52:49;;;;;;;;;;;;;;;19.06;62.61;101520.41;7400698;19;1971;-43
2023/01/08 02:55:19;;;;;;;;;;;;;;;19.53;61.07;101528.41;7400455;19;1571;-43
2023/01/08 02:57:50;;;;;;;;;;;;;;;19.80;60.54;101528.94;7401151;19;1647;-43
2023/01/08 03:00:19;;;;;;;;;;;;;;;19.73;60.48;101516.97;7400393;19;1695;-43
2023/01/08 03:02:50;;;;;;;;;;;;;;;19.71;60.57;101529.66;7399850;19;1778;-43
2023/01/08 03:05:24;;;;;;;;;;;;;;;19.73;60.59;101538.44;7398923;19;1857;-43
2023/01/08 03:07:53;;;;;;;;;;;;;;;19.48;60.76;101529.63;7400664;19;2173;-43
2023/01/08 03:10:23;;;;;;;;;;;;;;;19.26;61.23;101524.22;7399981;19;1588;-43
2023/01/08 03:12:56;;;;;;;;;;;;;;;19.18;61.64;101531.97;7400655;19;1616;-43
2023/01/08 03:15:28;;;;;;;;;;;;;;;19.12;61.54;101529.78;7400082;19;2074;-43
2023/01/08 03:17:59;;;;;;;;;;;;;;;19.20;61.25;101546.13;7399291;19;1716;-43
2023/01/08 03:20:27;;;;;;;;;;;;;;;19.26;60.97;101530.44;7400126;19;1562;-43
2023/01/08 03:22:57;;;;;;;;;;;;;;;19.13;61.27;101536.84;7400346;19;1886;-43
2023/01/08 03:25:28;;;;;;;;;;;;;;;19.15;61.39;101532.22;7398957;19;1864;-43
2023/01/08 03:28:05;;;;;;;;;;;;;;;19.10;61.53;101526.34;7399814;19;1681;-43
2023/01/08 03:30:35;;;;;;;;;;;;;;;19.04;61.74;101539.28;7397231;19;1602;-43
2023/01/08 03:33:07;;;;;;;;;;;;;;;19.11;61.74;101542.31;7399799;19;1252;-43
2023/01/08 03:35:35;;;;;;;;;;;;;;;19.16;61.28;101525.88;7399547;19;1661;-43
2023/01/08 03:38:07;;;;;;;;;;;;;;;19.23;61.39;101540.53;7397893;19;1684;-43
2023/01/08 03:40:38;;;;;;;;;;;;;;;19.15;61.29;101534.91;7399306;19;1527;-43
2023/01/08 03:43:10;;;;;;;;;;;;;;;19.12;61.80;101552.09;7399204;19;1708;-43
2023/01/08 03:45:40;;;;;;;;;;;;;;;19.15;61.35;101532.22;7398087;19;1853;-43
2023/01/08 03:48:09;;;;;;;;;;;;;;;19.12;61.63;101525.28;7400998;19;1783;-43
2023/01/08 03:50:37;;;;;;;;;;;;;;;19.14;61.43;101514.41;7407256;19;2011;-43
2023/01/08 03:53:05;;;;;;;;;;;;;;;19.17;61.50;101531.13;7406764;19;1404;-43
2023/01/08 03:55:36;;;;;;;;;;;;;;;19.18;62.01;101523.94;7406625;19;1630;-43
2023/01/08 03:58:04;;;;;;;;;;;;;;;19.20;62.04;101520.19;7407725;19;1969;-43
2023/01/08 04:00:36;;;;;;;;;;;;;;;19.07;61.83;101517.56;7407790;19;1638;-43
2023/01/08 04:03:06;;;;;;;;;;;;;;;19.12;61.77;101511.00;7407494;19;1624;-43
2023/01/08 04:05:35;;;;;;;;;;;;;;;19.06;62.29;101523.09;7405589;19;1855;-43
2023/01/08 04:08:04;;;;;;;;;;;;;;;19.11;62.06;101520.03;7406666;19;2040;-43
2023/01/08 04:10:33;;;;;;;;;;;;;;;19.16;61.78;101528.56;7407294;19;1970;-43
2023/01/08 04:13:04;;;;;;;;;;;;;;;19.11;61.91;101526.25;7407144;19;1643;-43
2023/01/08 04:15:32;;;;;;;;;;;;;;;19.12;61.59;101527.09;7406767;19;1895;-43
2023/01/08 04:18:04;;;;;;;;;;;;;;;19.09;61.79;101538.91;7407732;19;1407;-43
2023/01/08 04:20:32;;;;;;;;;;;;;;;19.15;61.60;101537.59;7407362;19;1814;-43
2023/01/08 04:23:01;;;;;;;;;;;;;;;19.20;61.32;101525.56;7407384;19;1961;-43
2023/01/08 04:25:30;;;;;;;;;;;;;;;19.18;61.71;101522.13;7405074;19;1860;-43
2023/01/08 04:27:58;;;;;;;;;;;;;;;19.15;61.59;101521.50;7406396;19;1663;-43
2023/01/08 04:30:26;;;;;;;;;;;;;;;19.10;61.56;101515.63;7404603;19;1430;-43
2023/01/08 04:32:55;;;;;;;;;;;;;;;19.04;61.91;101519.66;7406432;19;2226;-43
2023/01/08 04:35:25;;;;;;;;;;;;;;;19.05;61.81;101516.84;7405928;19;1964;-43
2023/01/08 04:37:55;;;;;;;;;;;;;;;19.07;61.72;101506.00;7406817;19;1525;-43
2023/01/08 04:40:23;;;;;;;;;;;;;;;19.12;61.75;101497.59;7405732;19;1800;-43
2023/01/08 04:42:51;;;;;;;;;;;;;;;19.11;61.64;101510.16;7406083;19;1617;-43
2023/01/08 04:45:19;;;;;;;;;;;;;;;19.12;61.41;101505.63;7405534;19;1853;-43
2023/01/08 04:47:48;;;;;;;;;;;;;;;19.10;61.54;101512.94;7405282;19;1837;-43
2023/01/08 04:50:16;;;;;;;;;;;;;;;19.17;61.56;101508.84;7406442;19;1654;-43
2023/01/08 04:52:47;;;;;;;;;;;;;;;19.17;61.46;101508.84;7405592;19;2073;-43
2023/01/08 04:55:15;;;;;;;;;;;;;;;19.20;61.25;101513.94;7405515;19;1912;-43
2023/01/08 04:57:44;;;;;;;;;;;;;;;19.10;61.42;101521.88;7405799;19;1833;-43
2023/01/08 05:00:13;;;;;;;;;;;;;;;19.17;61.69;101508.84;7403261;19;1809;-43
2023/01/08 05:02:41;;;;;;;;;;;;;;;19.10;61.51;101507.59;7405023;19;1907;-43
2023/01/08 05:05:10;;;;;;;;;;;;;;;19.10;61.73;101515.63;7404665;19;2187;-43
2023/01/08 05:07:39;;;;;;;;;;;;;;;19.15;61.54;101510.78;7405167;19;1603;-43
2023/01/08 05:10:10;;;;;;;;;;;;;;;19.08;61.26;101511.25;7405368;19;1423;-43
2023/01/08 05:12:39;;;;;;;;;;;;;;;19.11;61.37;101522.72;7405015;19;1991;-43
2023/01/08 05:15:07;;;;;;;;;;;;;;;19.16;61.33;101531.25;7405075;19;1446;-43
2023/01/08 05:17:36;;;;;;;;;;;;;;;19.07;61.44;101520.25;7405312;19;1775;-43
2023/01/08 05:20:04;;;;;;;;;;;;;;;19.17;61.20;101541.00;7404481;19;1522;-43
2023/01/08 05:22:33;;;;;;;;;;;;;;;19.20;61.07;101527.34;7404275;19;1697;-43
2023/01/08 05:25:03;;;;;;;;;;;;;;;19.16;61.23;101533.91;7404500;19;1190;-43
2023/01/08 05:27:34;;;;;;;;;;;;;;;19.18;61.01;101534.66;7405233;19;1976;-43
2023/01/08 05:30:02;;;;;;;;;;;;;;;19.10;61.41;101531.72;7403033;19;1724;-43
2023/01/08 05:32:30;;;;;;;;;;;;;;;19.06;61.29;101533.81;7404509;19;1929;-43
2023/01/08 05:35:00;;;;;;;;;;;;;;;19.15;61.33;101548.31;7404316;19;1689;-43
2023/01/08 05:37:29;;;;;;;;;;;;;;;19.07;61.38;101536.34;7403742;19;1501;-43
2023/01/08 05:39:57;;;;;;;;;;;;;;;19.07;61.34;101524.78;7403877;19;1568;-43
2023/01/08 05:42:25;;;;;;;;;;;;;;;19.09;61.40;101544.28;7403991;19;1614;-43
2023/01/08 05:44:56;;;;;;;;;;;;;;;18.74;61.89;101536.19;7403937;19;1949;-43
2023/01/08 05:47:25;;;;;;;;;;;;;;;18.38;62.70;101528.13;7401423;19;1861;-43
2023/01/08 05:49:54;;;;;;;;;;;;;;;18.13;63.19;101528.19;7404002;19;1915;-43
2023/01/08 05:52:22;;;;;;;;;;;;;;;17.78;63.29;101540.41;7403689;19;1968;-43
2023/01/08 05:54:51;;;;;;;;;;;;;;;17.61;64.15;101524.72;7403190;19;1927;-43
2023/01/08 05:57:19;;;;;;;;;;;;;;;17.56;64.45;101529.50;7404228;19;1612;-43
2023/01/08 05:59:48;;;;;;;;;;;;;;;17.53;64.33;101545.75;7403603;19;1443;-43
2023/01/08 06:02:21;;;;;;;;;;;;;;;17.55;64.32;101546.50;7403442;19;1453;-43
2023/01/08 06:04:49;;;;;;;;;;;;;;;17.52;64.78;101533.38;7403377;19;1817;-43
2023/01/08 06:07:17;;;;;;;;;;;;;;;17.50;64.52;101538.81;7401043;19;1969;-43
2023/01/08 06:09:46;;;;;;;;;;;;;;;17.50;64.46;101539.66;7403163;19;1705;-43
2023/01/08 06:12:22;;;;;;;;;;;;;;;17.44;65.04;101534.75;7402511;19;1642;-43
2023/01/08 06:14:50;;;;;;;;;;;;;;;17.52;65.01;101549.41;7402898;19;1994;-43
2023/01/08 06:17:21;;;;;;;;;;;;;;;17.98;63.65;101535.50;7403137;19;1811;-43
2023/01/08 06:19:49;;;;;;;;;;;;;;;18.40;62.27;101536.00;7403151;19;2017;-43
2023/01/08 06:22:18;;;;;;;;;;;;;;;18.85;61.22;101544.31;7402364;19;1797;-43
2023/01/08 06:24:46;;;;;;;;;;;;;;;19.45;59.98;101555.81;7402647;19;1622;-43
2023/01/08 06:27:20;;;;;;;;;;;;;;;19.61;59.58;101544.75;7401177;19;1864;-43
2023/01/08 06:29:49;;;;;;;;;;;;;;;19.52;59.65;101550.81;7401354;19;1617;-43
2023/01/08 06:32:18;;;;;;;;;;;;;;;19.53;59.92;101547.19;7402334;19;1618;-43
2023/01/08 06:34:50;;;;;;;;;;;;;;;19.58;59.67;101550.38;7402225;19;1629;-43
2023/01/08 06:37:19;;;;;;;;;;;;;;;19.39;60.08;101548.25;7402430;19;1608;-43
2023/01/08 06:39:47;;;;;;;;;;;;;;;19.17;60.45;101552.59;7402089;19;1767;-43
2023/01/08 06:42:15;;;;;;;;;;;;;;;19.10;60.72;101570.13;7402722;19;1600;-43
2023/01/08 06:44:44;;;;;;;;;;;;;;;19.08;60.98;101564.88;7401728;19;1554;-43
2023/01/08 06:47:12;;;;;;;;;;;;;;;19.13;61.33;101574.38;7400269;19;1942;-43
2023/01/08 06:49:40;;;;;;;;;;;;;;;19.07;62.42;101575.72;7401644;19;1870;-43
2023/01/08 06:52:12;;;;;;;;;;;;;;;19.05;62.15;101572.28;7401928;19;1529;-43
2023/01/08 06:54:40;;;;;;;;;;;;;;;19.03;62.42;101561.69;7401403;19;1674;-43
2023/01/08 06:57:08;;;;;;;;;;;;;;;19.00;62.30;101572.66;7401671;19;1660;-43
2023/01/08 06:59:36;;;;;;;;;;;;;;;19.13;62.11;101577.06;7401414;19;1816;-43
2023/01/08 07:02:05;;;;;;;;;;;;;;;19.10;61.99;101578.16;7401433;19;1643;-43
2023/01/08 07:04:33;;;;;;;;;;;;;;;19.13;62.33;101577.91;7400690;19;1947;-43
2023/01/08 07:07:03;;;;;;;;;;;;;;;19.15;62.52;101588.53;7400049;19;1865;-43
2023/01/08 07:09:34;;;;;;;;;;;;;;;19.10;62.79;101582.66;7401374;19;1980;-43
2023/01/08 07:12:03;;;;;;;;;;;;;;;19.18;62.63;101591.84;7402160;19;1644;-43
2023/01/08 07:14:38;;;;;;;;;;;;;;;19.18;62.51;101572.19;6711125;19;10000854;-43
2023/01/08 07:17:07;;;;;;;;;;;;;;;19.20;62.70;101576.50;7396138;19;1806;-43
2023/01/08 07:19:36;;;;;;;;;;;;;;;19.28;62.69;101573.22;7399848;19;1969;-43
2023/01/08 07:22:05;;;;;;;;;;;;;;;19.25;62.86;101576.13;7399842;19;1755;-43
2023/01/08 07:24:37;;;;;;;;;;;;;;;19.38;62.85;101582.28;7398969;19;1658;-43
2023/01/08 07:27:05;;;;;;;;;;;;;;;19.46;62.76;101570.97;7398770;19;1859;-43
2023/01/08 07:29:34;;;;;;;;;;;;;;;19.37;63.41;101583.22;7398570;19;1738;-43
2023/01/08 07:32:02;;;;;;;;;;;;;;;19.63;63.96;101591.94;7399847;19;1439;-43
2023/01/08 07:34:33;;;;;;;;;;;;;;;19.83;64.23;101589.56;7399641;19;1499;-43
2023/01/08 07:37:02;;;;;;;;;;;;;;;19.79;64.06;101572.00;7399902;19;1369;-43
2023/01/08 07:39:32;;;;;;;;;;;;;;;19.74;63.86;101575.03;7399719;19;1919;-43
2023/01/08 07:42:05;;;;;;;;;;;;;;;19.79;63.63;101582.72;7400814;19;1602;-43
2023/01/08 07:44:35;;;;;;;;;;;;;;;19.40;64.40;101579.47;7399404;19;1444;-44
2023/01/08 07:47:04;;;;;;;;;;;;;;;19.13;65.35;101590.47;7398525;19;1879;-44
2023/01/08 07:49:32;;;;;;;;;;;;;;;18.85;65.12;101576.47;7399229;19;1603;-44
2023/01/08 07:52:00;;;;;;;;;;;;;;;18.74;65.59;101576.38;7397828;19;1727;-43
2023/01/08 07:54:31;;;;;;;;;;;;;;;18.45;64.25;101584.75;7398558;19;1667;-43
2023/01/08 07:56:59;;;;;;;;;;;;;;;18.33;63.20;101575.78;7398474;19;1979;-43
2023/01/08 07:59:28;;;;;;;;;;;;;;;18.33;63.11;101582.97;7397774;19;2700;-44
2023/01/08 08:02:00;;;;;;;;;;;;;;;18.46;63.98;101581.09;7397725;19;1740;-43
2023/01/08 08:04:30;;;;;;;;;;;;;;;18.55;63.73;101588.47;7399006;19;1668;-43
2023/01/08 08:07:01;;;;;;;;;;;;;;;18.60;63.86;101585.44;7398523;19;1918;-43
2023/01/08 08:09:30;;;;;;;;;;;;;;;18.56;64.49;101579.47;7399691;19;1535;-43
2023/01/08 08:11:58;;;;;;;;;;;;;;;18.62;64.22;101579.00;7399239;19;1559;-43
2023/01/08 08:14:26;;;;;;;;;;;;;;;18.76;64.48;101585.16;7398953;19;2056;-42
2023/01/08 08:16:55;;;;;;;;;;;;;;;18.63;64.11;101575.34;7397600;19;1605;-43
2023/01/08 08:19:25;;;;;;;;;;;;;;;18.59;64.80;101595.31;7399500;19;1413;-43
2023/01/08 08:21:54;;;;;;;;;;;;;;;18.67;65.83;101598.25;7398655;19;1681;-43
2023/01/08 08:24:23;;;;;;;;;;;;;;;18.78;65.86;101596.59;7397592;19;1668;-43
2023/01/08 08:26:53;;;;;;;;;;;;;;;18.88;66.17;101584.28;7395321;19;1858;-40
2023/01/08 08:29:21;;;;;;;;;;;;;;;18.81;66.55;101565.13;7397813;19;1939;-40
2023/01/08 08:31:49;;;;;;;;;;;;;;;18.82;67.01;101587.41;7398335;19;1785;-40
2023/01/08 08:34:19;;;;;;;;;;;;;;;18.81;66.90;101580.34;7399013;19;1749;-39
2023/01/08 08:36:50;;;;;;;;;;;;;;;18.73;66.97;101578.22;7404980;19;1929;-39
2023/01/08 08:39:18;;;;;;;;;;;;;;;18.82;66.89;101590.09;7406849;19;1804;-40
2023/01/08 08:41:47;;;;;;;;;;;;;;;18.74;66.99;101574.56;7407081;19;1544;-39
2023/01/08 08:44:15;;;;;;;;;;;;;;;18.74;66.65;101571.00;7406720;19;1647;-39
2023/01/08 08:46:43;;;;;;;;;;;;;;;18.67;66.42;101590.22;7403941;19;1844;-39
2023/01/08 08:49:13;;;;;;;;;;;;;;;18.60;66.18;101570.22;7406082;19;1842;-40
2023/01/08 08:51:41;;;;;;;;;;;;;;;18.62;64.44;101570.09;7405552;19;1568;-39
2023/01/08 08:54:12;;;;;;;;;;;;;;;18.61;64.53;101571.94;7405695;19;2095;-40
2023/01/08 08:56:40;;;;;;;;;;;;;;;18.61;64.75;101566.56;7406817;19;1666;-39
2023/01/08 08:59:11;;;;;;;;;;;;;;;18.62;64.79;101562.94;7403927;19;2034;-39
2023/01/08 09:01:41;;;;;;;;;;;;;;;18.59;65.35;101573.88;7405080;19;1681;-39
2023/01/08 09:04:09;;;;;;;;;;;;;;;18.64;65.39;101565.47;7404014;19;1626;-41
2023/01/08 09:06:37;;;;;;;;;;;;;;;18.62;65.19;101559.38;7405377;19;1862;-39
2023/01/08 09:09:06;;;;;;;;;;;;;;;18.68;66.04;101556.25;7403690;19;1691;-40
2023/01/08 09:11:37;;;;;;;;;;;;;;;18.64;65.60;101544.94;7405620;19;2178;-40
2023/01/08 09:14:05;;;;;;;;;;;;;;;18.68;65.74;101540.16;7403089;19;2120;-39
2023/01/08 09:16:35;;;;;;;;;;;;;;;18.68;65.76;101549.09;7403210;19;1697;-39
2023/01/08 09:19:06;;;;;;;;;;;;;;;18.65;65.43;101538.59;7403866;19;1660;-39
2023/01/08 09:21:34;;;;;;;;;;;;;;;18.66;65.33;101526.03;7405385;19;1567;-39
2023/01/08 09:24:02;;;;;;;;;;;;;;;18.76;65.71;101536.91;7402785;19;1690;-40
2023/01/08 09:26:30;;;;;;;;;;;;;;;18.69;65.70;101529.34;7403526;19;1881;-41
2023/01/08 09:29:02;;;;;;;;;;;;;;;18.73;65.65;101532.66;7402577;19;1613;-40
2023/01/08 09:31:31;;;;;;;;;;;;;;;18.73;66.02;101521.94;7403634;19;1481;-40
2023/01/08 09:33:59;;;;;;;;;;;;;;;18.73;66.09;101505.88;7404437;19;1987;-39
2023/01/08 09:36:28;;;;;;;;;;;;;;;18.75;66.22;101513.78;7400869;19;1555;-40
2023/01/08 09:38:57;;;;;;;;;;;;;;;18.81;66.23;101530.28;7403790;19;1531;-41
2023/01/08 09:41:28;;;;;;;;;;;;;;;18.81;66.22;101491.91;7404572;19;1621;-39
2023/01/08 09:43:57;;;;;;;;;;;;;;;18.82;66.22;101509.69;7403698;19;1640;-40
2023/01/08 09:46:29;;;;;;;;;;;;;;;18.83;66.76;101511.41;7401850;19;1708;-39
2023/01/08 09:49:00;;;;;;;;;;;;;;;18.67;65.96;101509.00;7403142;19;1624;-39
2023/01/08 09:51:32;;;;;;;;;;;;;;;18.56;66.14;101507.16;7402398;19;1511;-40
2023/01/08 09:54:00;;;;;;;;;;;;;;;18.28;66.19;101495.81;7403061;19;1837;-40
2023/01/08 09:56:30;;;;;;;;;;;;;;;18.30;64.94;101487.63;7403860;19;1616;-39
2023/01/08 09:59:00;;;;;;;;;;;;;;;18.40;64.99;101493.16;7402831;19;1772;-39
2023/01/08 10:01:32;;;;;;;;;;;;;;;18.42;64.88;101481.41;7402801;19;1888;-40
2023/01/08 10:04:05;;;;;;;;;;;;;;;18.47;64.70;101478.38;7402937;19;1573;-41
2023/01/08 10:06:33;;;;;;;;;;;;;;;18.48;65.32;101490.75;7403332;19;1949;-40
2023/01/08 10:09:01;;;;;;;;;;;;;;;18.45;64.49;101496.38;7398875;19;1851;-40
2023/01/08 10:11:36;;;;;;;;;;;;;;;18.42;64.35;101478.72;7404075;19;1602;-40
2023/01/08 10:14:04;;;;;;;;;;;;;;;18.40;64.43;101467.25;7403678;19;1929;-40
2023/01/08 10:16:37;;;;;;;;;;;;;;;18.45;64.25;101477.63;7401781;19;1899;-40
2023/01/08 10:19:06;;;;;;;;;;;;;;;18.28;64.68;101458.31;7402848;19;1606;-40
2023/01/08 10:21:38;;;;;;;;;;;;;;;18.31;64.60;101459.06;7402847;19;1876;-40
2023/01/08 10:24:06;;;;;;;;;;;;;;;18.34;64.80;101464.16;7403188;19;1755;-40
2023/01/08 10:26:36;;;;;;;;;;;;;;;18.45;65.17;101451.69;7403132;19;1027;-40
2023/01/08 10:29:08;;;;;;;;;;;;;;;18.51;64.56;101453.06;7397693;19;2072;-40
2023/01/08 10:31:46;;;;;;;;;;;;;;;18.42;65.26;101448.38;7401327;19;1564;-40
2023/01/08 10:34:20;;;;;;;;;;;;;;;18.24;64.85;101448.81;7401009;19;1903;-40
2023/01/08 10:36:50;;;;;;;;;;;;;;;18.20;64.49;101446.44;7400172;19;1756;-40
2023/01/08 10:39:23;;;;;;;;;;;;;;;18.16;64.27;101447.66;7399513;19;1571;-40
2023/01/08 10:41:52;;;;;;;;;;;;;;;18.08;63.72;101450.88;7401515;19;1449;-40
2023/01/08 10:44:22;;;;;;;;;;;;;;;18.00;61.42;101451.44;7402111;19;1583;-39
2023/01/08 10:46:55;;;;;;;;;;;;;;;18.56;59.09;101431.28;7397834;19;2060;-39
2023/01/08 10:49:27;;;;;;;;;;;;;;;19.02;57.25;101447.41;7402193;19;1900;-39
2023/01/08 10:51:56;;;;;;;;;;;;;;;19.32;56.53;101432.56;7400377;19;2145;-39
2023/01/08 10:54:31;;;;;;;;;;;;;;;19.74;55.94;101442.72;7402331;19;1791;-39
2023/01/08 10:56:59;;;;;;;;;;;;;;;19.96;55.61;101409.59;7399277;19;1827;-39
2023/01/08 10:59:28;;;;;;;;;;;;;;;20.03;56.01;101426.88;7399661;19;1887;-40
2023/01/08 11:01:59;;;;;;;;;;;;;;;19.92;56.69;101426.94;7401542;19;1651;-40
2023/01/08 11:04:31;;;;;;;;;;;;;;;19.43;57.66;101424.50;7401524;19;1910;-39
2023/01/08 11:07:02;;;;;;;;;;;;;;;19.00;59.72;101417.19;7399347;19;1892;-40
2023/01/08 11:09:32;;;;;;;;;;;;;;;18.79;60.36;101421.50;7397927;19;1496;-40
2023/01/08 11:12:01;;;;;;;;;;;;;;;18.60;61.38;101412.19;7400170;19;1351;-40
2023/01/08 11:14:33;;;;;;;;;;;;;;;18.56;61.94;101417.88;7397413;19;1770;-40
2023/01/08 11:17:10;;;;;;;;;;;;;;;18.47;61.86;101416.75;7398871;19;1737;-40
2023/01/08 11:19:38;;;;;;;;;;;;;;;18.37;62.49;101405.88;7398367;19;1765;-40
2023/01/08 11:22:08;;;;;;;;;;;;;;;18.32;62.76;101415.22;7400195;19;1487;-40
2023/01/08 11:24:37;;;;;;;;;;;;;;;18.26;62.95;101401.34;7399645;19;1751;-40
2023/01/08 11:27:07;;;;;;;;;;;;;;;18.23;63.50;101404.25;7401023;19;1871;-40
2023/01/08 11:29:43;;;;;;;;;;;;;;;18.20;63.62;101407.13;7397853;19;1547;-40
2023/01/08 11:32:23;;;;;;;;;;;;;;;18.18;63.41;101410.91;7399963;19;1627;-41
2023/01/08 11:34:55;;;;;;;;;;;;;;;18.21;62.75;101411.53;7399502;19;1582;-40
2023/01/08 11:37:25;;;;;;;;;;;;;;;18.25;62.45;101404.13;7399931;19;1755;-40
2023/01/08 11:39:54;;;;;;;;;;;;;;;18.21;62.68;101406.19;7398623;19;1639;-40
2023/01/08 11:42:33;;;;;;;;;;;;;;;18.20;62.99;101406.28;6880905;19;10000039;-40
2023/01/08 11:45:08;;;;;;;;;;;;;;;18.17;63.09;101407.38;7389137;19;1623;-40
2023/01/08 11:47:45;;;;;;;;;;;;;;;18.15;62.75;101403.97;7394315;19;1841;-40
2023/01/08 11:50:19;;;;;;;;;;;;;;;18.09;63.31;101407.09;7395644;19;1679;-40
2023/01/08 11:52:54;;;;;;;;;;;;;;;18.11;63.13;101415.88;7394895;19;1488;-40
2023/01/08 11:55:31;;;;;;;;;;;;;;;18.11;63.13;101402.50;7393711;19;1652;-40
2023/01/08 11:58:09;;;;;;;;;;;;;;;18.06;63.14;101394.81;7395050;19;1644;-40
2023/01/08 12:00:48;;;;;;;;;;;;;;;18.04;63.51;101398.56;7394346;19;1885;-40
2023/01/08 12:03:27;;;;;;;;;;;;;;;18.07;63.28;101401.88;7395190;19;1775;-40
2023/01/08 12:05:59;;;;;;;;;;;;;;;18.05;63.42;101382.38;7394926;19;1894;-40
2023/01/08 12:08:30;;;;;;;;;;;;;;;18.02;63.96;101397.81;7392916;19;1865;-40
2023/01/08 12:11:03;;;;;;;;;;;;;;;17.99;64.00;101392.72;7402932;19;2862;-40
2023/01/08 12:13:43;;;;;;;;;;;;;;;17.98;63.93;101390.97;7400176;19;1656;-40
2023/01/08 12:16:19;;;;;;;;;;;;;;;17.98;64.06;101390.97;7399547;19;1460;-40
2023/01/08 12:18:58;;;;;;;;;;;;;;;17.93;64.39;101387.81;7395375;19;1772;-41
2023/01/08 12:21:32;;;;;;;;;;;;;;;17.95;64.26;101399.25;7399233;19;1703;-40
2023/01/08 12:24:10;;;;;;;;;;;;;;;17.94;64.20;101393.03;7399959;19;1932;-40
2023/01/08 12:26:43;;;;;;;;;;;;;;;17.97;64.43;101383.94;7394259;19;1690;-40
2023/01/08 12:29:17;;;;;;;;;;;;;;;17.88;64.46;101380.94;7393531;19;1862;-40
2023/01/08 12:31:54;;;;;;;;;;;;;;;17.83;64.43;101384.91;7404402;19;2206;-40
2023/01/08 12:34:32;;;;;;;;;;;;;;;17.83;64.56;101390.28;7400840;19;1611;-40
2023/01/08 12:37:07;;;;;;;;;;;;;;;17.79;64.84;101381.63;7403600;19;1699;-40
2023/01/08 12:39:42;;;;;;;;;;;;;;;17.77;64.66;101383.53;7403468;19;2157;-40
2023/01/08 12:42:14;;;;;;;;;;;;;;;17.82;64.84;101402.78;7405828;19;1125;-40
2023/01/08 12:44:43;;;;;;;;;;;;;;;17.80;65.04;101388.66;7406474;19;2030;-40
2023/01/08 12:47:14;;;;;;;;;;;;;;;17.76;64.96;101381.81;7405206;19;2035;-40
2023/01/08 12:49:47;;;;;;;;;;;;;;;17.74;64.80;101372.22;7401551;19;2063;-40
2023/01/08 12:52:18;;;;;;;;;;;;;;;17.78;65.26;101385.25;7404799;19;1134;-40
2023/01/08 12:54:51;;;;;;;;;;;;;;;17.73;65.09;101382.06;7404513;19;1676;-40
2023/01/08 12:57:23;;;;;;;;;;;;;;;17.71;64.96;101370.63;7406916;19;1066;-40
2023/01/08 12:59:56;;;;;;;;;;;;;;;17.74;65.37;101365.03;7405156;19;1923;-40
2023/01/08 13:02:32;;;;;;;;;;;;;;;17.69;65.09;101381.44;7406817;19;1924;-40